logo
Search for airport 
image banner adimage banner adimage banner ad
image banner ad

FAFG - Flamingo

Located in Flamingo Vlei, South Africa

ICAO - FAFG, IATA -

Data provided by Airmate  

General information

Coordinates: S32°53'37" E27°58'59"
Elevation is 433 feet MSL.
 
View others Airports in Northern Cape

Operational data

Special qualification required
Current time UTC:
Current local time:
Weather at : FAEL - King Phalo ( 22 km )
METAR: FAEL 181000Z 20008KT CAVOK 22/17 Q1019
TAF: TAF FAEL 180900Z 1810/1819 20012KT 9999 FEW010 TX24/1810Z TN18/1819Z TEMPO 1810/1814 BKN008 PROB40 TEMPO 1815/1818 5000 BR BKN003
View NOTAMs / SUP AIP / TFR affecting this airport [VIEW]
Communications frequencies: [VIEW]

Runways:

RWY identifierQFULength (ft)Width (ft)SurfaceLDA (ft)
0117°206749GRASS
19197°206749GRASS

Airport contact information

Address: Flamingo Vlei South Africa

Satellite view of FAFG